Time;durP1;ratioP1;P1;durP2;ratioP2;P2;SDS_P1;SDS_P2;PMS_P1;PMS_P2;Temp;Humidity;BMP_temperature;BMP_pressure;BME280_temperature;BME280_humidity;BME280_pressure;Samples;Min_cycle;Max_cycle;Signal;HPM_P1;HPM_P2
2023/06/24 00:01:01;;;;;;;;;;;23.30;60.70;;;23.51;39.52;99502.09;5025855;27;124143;-82
2023/06/24 00:03:27;;;;;;;;;;;23.30;60.80;;;23.50;39.80;99506.09;5025041;28;124088;-82
2023/06/24 00:05:56;;;;;;;;;;;23.20;60.90;;;23.49;39.81;99512.94;5022739;28;119290;-82
2023/06/24 00:08:23;;;;;;;;;;;23.20;61.10;;;23.48;40.01;99514.97;5022088;28;118772;-84
2023/06/24 00:10:50;;;;;;;;;;;23.20;61.20;;;23.45;39.87;99517.72;5026981;28;124823;-82
2023/06/24 00:13:19;;;;;;;;;;;23.20;61.20;;;23.43;40.14;99517.28;5042890;27;123941;-83
2023/06/24 00:15:45;;;;;;;;;;;23.20;61.40;;;23.40;40.14;99518.03;5046635;27;120236;-83
2023/06/24 00:18:11;;;;;;;;;;;23.20;61.60;;;23.37;40.42;99516.78;5037521;27;119722;-83
2023/06/24 00:20:38;;;;;;;;;;;23.10;61.70;;;23.32;40.58;99508.66;5038449;27;123840;-82
2023/06/24 00:23:06;;;;;;;;;;;23.10;61.80;;;23.30;40.70;99509.06;5030911;27;123492;-83
2023/06/24 00:25:33;;;;;;;;;;;23.10;62.00;;;23.27;40.63;99514.66;5047008;27;119276;-82
2023/06/24 00:27:59;;;;;;;;;;;23.10;62.30;;;23.22;40.92;99512.97;5033935;27;118733;-83
2023/06/24 00:30:26;;;;;;;;;;;23.00;62.30;;;23.18;41.00;99514.91;5038629;27;124162;-82
2023/06/24 00:32:53;;;;;;;;;;;23.00;62.50;;;23.15;40.92;99510.03;5032744;27;123987;-82
2023/06/24 00:35:19;;;;;;;;;;;23.00;62.70;;;23.12;41.25;99519.25;5041760;27;119499;-82
2023/06/24 00:37:46;;;;;;;;;;;22.90;62.80;;;23.10;41.46;99504.72;5036322;27;118436;-82
2023/06/24 00:40:14;;;;;;;;;;;22.90;63.10;;;23.08;41.58;99515.59;5042217;27;123324;-82
2023/06/24 00:42:43;;;;;;;;;;;22.90;63.20;;;23.06;41.54;99512.31;5034937;27;124546;-81
2023/06/24 00:45:10;;;;;;;;;;;22.80;63.30;;;23.04;41.53;99511.88;5036047;27;119998;-81
2023/06/24 00:47:42;;;;;;;;;;;22.80;63.60;;;23.04;41.78;99517.53;5030178;27;119326;-81
2023/06/24 00:50:11;;;;;;;;;;;22.80;63.80;;;23.05;41.99;99519.13;5024210;27;124096;-81
2023/06/24 00:52:42;;;;;;;;;;;22.80;64.00;;;23.04;41.83;99511.88;5032914;27;123715;-81
2023/06/24 00:55:15;;;;;;;;;;;22.80;64.10;;;23.03;41.81;99518.72;5047972;27;119666;-81
2023/06/24 00:57:43;;;;;;;;;;;22.70;64.10;;;22.98;41.75;99519.03;5033092;27;118987;-81
2023/06/24 01:00:15;;;;;;;;;;;22.70;64.20;;;22.96;41.77;99521.41;5036053;27;123831;-81
2023/06/24 01:02:42;;;;;;;;;;;22.70;64.20;;;22.93;41.86;99514.50;5030395;27;124619;-81
2023/06/24 01:05:10;;;;;;;;;;;22.70;64.30;;;22.92;42.04;99515.72;5042031;27;119917;-81
2023/06/24 01:07:41;;;;;;;;;;;22.70;64.60;;;22.90;42.24;99518.91;5024025;27;118905;-82
2023/06/24 01:10:09;;;;;;;;;;;22.60;64.70;;;22.88;42.25;99515.63;5035784;27;124882;-82
2023/06/24 01:12:39;;;;;;;;;;;23.00;65.20;;;22.87;42.38;99511.19;5040879;27;123100;-82
2023/06/24 01:15:09;;;;;;;;;;;22.60;65.00;;;22.86;42.69;99523.69;5047644;27;119490;-82
2023/06/24 01:18:10;;;;;;;;;;;22.60;65.20;;;22.82;42.42;99517.16;5023031;27;118594;-81
2023/06/24 01:20:46;;;;;;;;;;;22.60;65.40;;;22.80;42.59;99513.88;5012441;27;124453;-82
2023/06/24 01:23:51;;;;;;;;;;;22.60;65.60;;;22.77;42.88;99514.66;5041286;27;124025;-82
2023/06/24 01:26:42;;;;;;;;;;;22.50;65.70;;;22.75;42.84;99502.94;5040907;27;119041;-82
2023/06/24 01:29:51;;;;;;;;;;;22.50;65.90;;;22.71;43.00;99511.34;5025735;27;118705;-82
2023/06/24 01:32:27;;;;;;;;;;;22.50;66.00;;;22.73;43.05;99516.59;5012697;27;124182;-82
2023/06/24 01:34:59;;;;;;;;;;;22.50;66.10;;;22.73;43.17;99513.78;5024230;27;123829;-82
2023/06/24 01:37:26;;;;;;;;;;;22.50;66.30;;;22.73;43.02;99513.78;5033119;27;119916;-82
2023/06/24 01:40:42;;;;;;;;;;;22.40;66.20;;;22.69;42.65;99510.09;5047139;27;118678;-81
2023/06/24 01:43:09;;;;;;;;;;;22.40;66.20;;;22.67;42.97;99506.81;5023433;27;124204;-81
2023/06/24 01:45:42;;;;;;;;;;;22.40;66.20;;;22.66;42.74;99499.56;5041752;27;121866;-81
2023/06/24 01:48:34;;;;;;;;;;;22.40;66.20;;;22.60;42.68;99510.34;5037384;27;119294;-82
2023/06/24 01:51:02;;;;;;;;;;;22.40;66.10;;;22.60;42.75;99506.72;5043408;27;118938;-81
2023/06/24 01:53:33;;;;;;;;;;;22.40;66.20;;;22.57;42.83;99504.63;5038474;27;123813;-81
2023/06/24 01:56:02;;;;;;;;;;;22.30;66.70;;;22.52;42.80;99502.16;5024726;27;123011;-81
2023/06/24 01:58:30;;;;;;;;;;;22.30;66.00;;;22.47;43.08;99506.91;5048198;27;120526;-82
2023/06/24 02:00:57;;;;;;;;;;;22.20;65.90;;;22.42;42.92;99493.13;5043254;27;119746;-81
2023/06/24 02:03:26;;;;;;;;;;;22.20;66.10;;;22.37;43.17;99499.06;5008194;28;123625;-82
2023/06/24 02:05:56;;;;;;;;;;;22.20;66.10;;;22.30;43.18;99498.97;5024616;27;124170;-82
2023/06/24 02:08:23;;;;;;;;;;;22.10;66.10;;;22.25;42.96;99502.09;5027063;27;119544;-83
2023/06/24 02:10:52;;;;;;;;;;;22.10;66.30;;;22.20;43.52;99497.56;5025609;27;118387;-82
2023/06/24 02:13:19;;;;;;;;;;;22.10;66.50;;;22.14;43.39;99499.03;5042003;27;123886;-82
2023/06/24 02:15:47;;;;;;;;;;;22.00;66.70;;;22.11;43.90;99510.22;5039636;27;123879;-82
2023/06/24 02:18:17;;;;;;;;;;;21.90;66.80;;;22.09;43.81;99502.16;5040249;27;118518;-82
2023/06/24 02:20:44;;;;;;;;;;;21.90;67.10;;;22.08;43.90;99505.31;5039706;27;118745;-82
2023/06/24 02:23:11;;;;;;;;;;;21.90;67.30;;;22.04;44.07;99496.81;5034022;27;124273;-82
2023/06/24 02:25:41;;;;;;;;;;;21.90;67.50;;;22.01;44.29;99492.75;5018369;27;123229;-82
2023/06/24 02:28:10;;;;;;;;;;;21.80;67.60;;;21.96;44.16;99487.44;5036997;27;118730;-83
2023/06/24 02:30:39;;;;;;;;;;;21.80;67.70;;;21.95;44.20;99484.97;5039515;27;118820;-82
2023/06/24 02:33:06;;;;;;;;;;;21.70;67.80;;;21.94;44.41;99486.97;5022896;27;124281;-82
2023/06/24 02:35:32;;;;;;;;;;;21.70;68.00;;;21.94;44.68;99486.97;5024054;27;124641;-82
2023/06/24 02:37:59;;;;;;;;;;;21.70;68.20;;;21.93;44.45;99491.00;5022867;27;119458;-82
2023/06/24 02:40:25;;;;;;;;;;;21.70;68.30;;;21.88;44.74;99482.84;5026694;28;117618;-82
2023/06/24 02:42:54;;;;;;;;;;;21.70;68.70;;;21.86;44.44;99487.22;5024163;28;124202;-82
2023/06/24 02:45:23;;;;;;;;;;;21.60;68.60;;;21.82;44.85;99485.16;5026658;28;124027;-82
2023/06/24 02:47:50;;;;;;;;;;;21.60;68.70;;;21.81;44.71;99491.94;5009960;28;119494;-82
2023/06/24 02:50:16;;;;;;;;;;;21.60;68.80;;;21.81;44.58;99491.94;5024638;27;120358;-82
2023/06/24 02:52:43;;;;;;;;;;;21.60;69.00;;;21.81;45.09;99491.13;5023847;28;125216;-83
2023/06/24 02:55:09;;;;;;;;;;;21.60;69.10;;;21.80;44.72;99492.34;5025749;28;124380;-83
2023/06/24 02:57:36;;;;;;;;;;;21.50;69.10;;;21.79;45.10;99493.53;5023764;28;119085;-82
2023/06/24 03:00:05;;;;;;;;;;;21.50;69.20;;;21.74;44.81;99491.00;5024358;28;118540;-82
2023/06/24 03:02:32;;;;;;;;;;;21.50;69.30;;;21.68;45.04;99486.84;5022197;27;124316;-82
2023/06/24 03:05:04;;;;;;;;;;;21.40;69.30;;;21.60;45.43;99497.97;5024572;28;124607;-82
2023/06/24 03:07:30;;;;;;;;;;;21.40;69.40;;;21.55;45.18;99500.25;5022376;27;119487;-82
2023/06/24 03:09:58;;;;;;;;;;;21.40;69.60;;;21.50;45.34;99492.13;5024178;28;118585;-82
2023/06/24 03:12:24;;;;;;;;;;;21.30;69.60;;;21.45;45.60;99496.03;5022970;28;124877;-82
2023/06/24 03:14:50;;;;;;;;;;;21.30;69.70;;;21.43;45.35;99486.34;5025224;28;124524;-83
2023/06/24 03:17:16;;;;;;;;;;;21.30;69.90;;;21.39;45.49;99508.75;5028219;28;119401;-83
2023/06/24 03:19:43;;;;;;;;;;;21.20;70.00;;;21.38;45.84;99507.91;5027528;28;118849;-82
2023/06/24 03:22:09;;;;;;;;;;;21.20;70.20;;;21.35;45.85;99499.38;5024809;28;124520;-83
2023/06/24 03:24:35;;;;;;;;;;;21.10;70.20;;;21.33;45.75;99511.00;5024766;28;124256;-82
2023/06/24 03:27:02;;;;;;;;;;;21.10;70.40;;;21.31;45.85;99515.38;5024987;28;119377;-83
2023/06/24 03:29:31;;;;;;;;;;;21.10;70.40;;;21.25;45.89;99514.00;5028670;27;118397;-83
2023/06/24 03:31:57;;;;;;;;;;;21.10;70.60;;;21.21;45.87;99518.75;5026709;28;123753;-82
2023/06/24 03:34:24;;;;;;;;;;;21.00;70.60;;;21.17;45.73;99524.25;5026032;27;123023;-83
2023/06/24 03:36:51;;;;;;;;;;;21.00;70.60;;;21.15;45.76;99530.25;5021139;27;120467;-83
2023/06/24 03:39:20;;;;;;;;;;;21.00;70.70;;;21.14;45.61;99537.06;5024062;28;119700;-83
2023/06/24 03:41:46;;;;;;;;;;;21.00;70.70;;;21.13;45.91;99540.25;5022348;27;126140;-82
2023/06/24 03:44:13;;;;;;;;;;;21.00;70.80;;;21.10;45.80;99540.97;5022788;28;123720;-84
2023/06/24 03:46:41;;;;;;;;;;;20.90;70.80;;;21.07;45.95;99542.53;5022361;28;119770;-82
2023/06/24 03:49:10;;;;;;;;;;;20.90;70.80;;;21.05;46.11;99544.88;5008826;28;117021;-83
2023/06/24 03:51:39;;;;;;;;;;;20.90;70.90;;;21.07;45.92;99548.13;5023650;28;124242;-83
2023/06/24 03:54:05;;;;;;;;;;;20.90;71.20;;;21.11;45.77;99556.66;5027350;27;123370;-83
2023/06/24 03:56:31;;;;;;;;;;;20.90;71.20;;;21.13;45.89;99545.88;5009244;28;118830;-83
2023/06/24 03:58:57;;;;;;;;;;;20.90;71.40;;;21.12;45.71;99547.88;5024737;28;118622;-83
2023/06/24 04:01:24;;;;;;;;;;;20.80;71.20;;;21.12;45.98;99556.28;5022951;27;124573;-83
2023/06/24 04:03:52;;;;;;;;;;;20.80;71.30;;;21.19;45.78;99556.44;5023352;28;123908;-83
2023/06/24 04:06:23;;;;;;;;;;;20.90;71.50;;;21.24;45.90;99555.34;5022616;27;119491;-83
2023/06/24 04:08:51;;;;;;;;;;;20.90;71.50;;;21.28;45.52;99558.25;5026552;27;118424;-83
2023/06/24 04:11:18;;;;;;;;;;;20.90;71.50;;;21.26;45.97;99555.81;5036236;27;123212;-82
2023/06/24 04:13:48;;;;;;;;;;;20.90;71.50;;;21.26;45.63;99560.63;5037140;27;124750;-83
2023/06/24 04:16:17;;;;;;;;;;;20.90;71.50;;;21.24;45.93;99563.78;5036521;27;119536;-83
2023/06/24 04:18:43;;;;;;;;;;;20.90;71.50;;;21.24;45.71;99562.97;5041411;27;118575;-83
2023/06/24 04:21:12;;;;;;;;;;;20.90;71.50;;;21.25;45.92;99564.59;5040198;27;123377;-83
2023/06/24 04:23:38;;;;;;;;;;;20.90;71.60;;;21.27;45.63;99567.88;5043606;27;124109;-82
2023/06/24 04:26:04;;;;;;;;;;;21.00;71.70;;;21.28;45.97;99569.47;5030798;27;121354;-82
2023/06/24 04:28:31;;;;;;;;;;;20.90;71.70;;;21.28;46.08;99563.84;5025324;28;119581;-82
2023/06/24 04:31:00;;;;;;;;;;;20.90;71.80;;;21.29;45.88;99573.94;5029390;27;123227;-82
2023/06/24 04:33:26;;;;;;;;;;;20.90;71.80;;;21.26;45.89;99577.50;5025433;28;124185;-82
2023/06/24 04:35:54;;;;;;;;;;;20.90;71.80;;;21.25;45.83;99573.03;5025285;27;120509;-82
2023/06/24 04:38:24;;;;;;;;;;;20.90;71.80;;;21.24;45.96;99575.03;5026335;28;118380;-82
2023/06/24 04:40:50;;;;;;;;;;;20.90;71.80;;;21.28;46.16;99580.72;5030018;27;124159;-82
2023/06/24 04:43:16;;;;;;;;;;;20.90;72.00;;;21.30;46.09;99584.00;5012829;28;122929;-81
2023/06/24 04:45:43;;;;;;;;;;;20.90;72.30;;;21.31;45.93;99580.03;5015240;28;119798;-82
2023/06/24 04:48:09;;;;;;;;;;;20.90;72.30;;;21.30;46.04;99584.00;5028892;27;117716;-82
2023/06/24 04:50:35;;;;;;;;;;;21.70;73.10;;;21.28;46.29;99581.56;5024073;28;124127;-82
2023/06/24 04:53:02;;;;;;;;;;;20.90;72.50;;;21.30;45.96;99584.00;5026970;28;123846;-82
2023/06/24 04:55:31;;;;;;;;;;;20.90;72.50;;;21.32;46.37;99581.63;5009130;28;118463;-82
2023/06/24 04:57:57;;;;;;;;;;;20.90;72.60;;;21.34;46.13;99579.28;5026010;28;118982;-82
2023/06/24 05:00:24;;;;;;;;;;;21.00;72.80;;;21.35;46.28;99580.91;5026644;28;124778;-81
2023/06/24 05:02:50;;;;;;;;;;;21.00;72.70;;;21.36;46.18;99585.38;5016445;27;124007;-82
2023/06/24 05:05:16;;;;;;;;;;;21.00;72.70;;;21.35;46.27;99578.09;5027046;28;119430;-82
2023/06/24 05:07:43;;;;;;;;;;;21.00;72.80;;;21.36;46.19;99577.75;5025309;27;119389;-82
2023/06/24 05:10:09;;;;;;;;;;;21.00;72.90;;;21.38;46.17;99580.19;5024430;28;124745;-82
2023/06/24 05:12:35;;;;;;;;;;;21.00;72.90;;;21.39;46.32;99576.22;5024788;28;124725;-82
2023/06/24 05:15:02;;;;;;;;;;;21.00;73.00;;;21.40;46.15;99589.09;5026675;28;120376;-82
2023/06/24 05:17:28;;;;;;;;;;;21.10;73.00;;;21.40;46.03;99583.47;5028812;27;118745;-82
2023/06/24 05:19:55;;;;;;;;;;;21.10;73.00;;;21.40;46.32;99589.09;5028855;28;124810;-82
2023/06/24 05:22:21;;;;;;;;;;;21.10;73.10;;;21.36;46.18;99588.97;5029569;28;124032;-82
2023/06/24 05:24:47;;;;;;;;;;;21.00;72.90;;;21.38;46.32;99588.63;5026022;28;119632;-82
2023/06/24 05:27:14;;;;;;;;;;;21.10;73.20;;;21.42;46.39;99597.97;5028298;28;117649;-82
2023/06/24 05:29:40;;;;;;;;;;;21.10;73.40;;;21.44;46.58;99587.19;5023912;28;125452;-82
2023/06/24 05:32:06;;;;;;;;;;;21.10;73.60;;;21.49;46.20;99584.06;5026450;28;124445;-82
2023/06/24 05:34:34;;;;;;;;;;;21.10;73.70;;;21.54;46.63;99597.03;5004933;28;118585;-83
2023/06/24 05:37:01;;;;;;;;;;;21.20;74.20;;;21.57;46.14;99594.31;5025489;27;118937;-82
2023/06/24 05:39:30;;;;;;;;;;;21.20;73.90;;;21.62;46.42;99588.38;5024031;28;124261;-82
2023/06/24 05:41:59;;;;;;;;;;;21.20;74.00;;;21.68;46.50;99588.94;5025131;27;123877;-82
2023/06/24 05:44:27;;;;;;;;;;;21.30;74.10;;;21.71;46.04;99587.34;5025301;28;119988;-82
2023/06/24 05:46:54;;;;;;;;;;;21.30;74.10;;;21.75;46.44;99582.66;5028176;28;119027;-81
2023/06/24 05:49:20;;;;;;;;;;;21.30;74.10;;;21.79;45.99;99589.19;5024490;28;124633;-82
2023/06/24 05:51:46;;;;;;;;;;;21.40;74.10;;;21.84;46.35;99592.50;5026115;28;126507;-82
2023/06/24 05:54:12;;;;;;;;;;;21.40;74.20;;;21.91;45.93;99591.03;5025060;28;119367;-82
2023/06/24 05:56:39;;;;;;;;;;;21.50;74.20;;;21.97;46.07;99586.72;5026054;28;119079;-82
2023/06/24 05:59:05;;;;;;;;;;;21.50;74.20;;;22.03;45.63;99591.69;5025578;28;124534;-82
2023/06/24 06:01:31;;;;;;;;;;;21.60;74.10;;;22.09;45.52;99585.78;5022837;27;123728;-82
2023/06/24 06:03:58;;;;;;;;;;;21.60;74.00;;;22.17;45.71;99584.75;5027932;28;120295;-81
2023/06/24 06:06:24;;;;;;;;;;;21.70;74.10;;;22.26;45.47;99591.78;5023563;27;120051;-82
2023/06/24 06:08:50;;;;;;;;;;;21.70;73.90;;;22.37;45.14;99585.56;5025857;27;122552;-82
2023/06/24 06:11:17;;;;;;;;;;;21.80;73.80;;;22.44;44.91;99597.78;5027261;28;123237;-80
2023/06/24 06:13:43;;;;;;;;;;;21.90;73.50;;;22.49;44.60;99582.56;5025929;28;119546;-81
2023/06/24 06:16:09;;;;;;;;;;;22.00;73.10;;;22.52;44.42;99587.47;5025664;28;119288;-81
2023/06/24 06:18:38;;;;;;;;;;;22.00;72.90;;;22.62;44.43;99586.00;5024439;28;124696;-81
2023/06/24 06:21:04;;;;;;;;;;;22.10;72.90;;;22.73;44.11;99575.78;5021103;28;124020;-80
2023/06/24 06:23:30;;;;;;;;;;;22.10;72.70;;;22.83;43.69;99577.13;5024303;28;119158;-81
2023/06/24 06:25:57;;;;;;;;;;;22.20;72.40;;;22.91;43.59;99582.50;5023773;28;118514;-81
2023/06/24 06:28:23;;;;;;;;;;;22.30;72.20;;;22.96;43.79;99575.78;5012087;28;124280;-80
2023/06/24 06:30:49;;;;;;;;;;;22.40;72.00;;;23.03;43.58;99573.09;5020094;28;124154;-80
2023/06/24 06:33:16;;;;;;;;;;;22.50;71.80;;;23.10;43.25;99569.56;5021160;28;119080;-80
2023/06/24 06:35:42;;;;;;;;;;;22.50;71.50;;;23.19;42.96;99567.31;5022475;27;118995;-81
2023/06/24 06:38:08;;;;;;;;;;;22.60;71.30;;;23.26;42.78;99575.84;5015556;27;124110;-80
2023/06/24 06:40:35;;;;;;;;;;;22.70;71.00;;;23.32;42.89;99574.34;5012820;28;123908;-83
2023/06/24 06:43:01;;;;;;;;;;;22.80;70.90;;;23.43;42.32;99573.69;5013893;27;119572;-85
2023/06/24 06:45:27;;;;;;;;;;;22.80;70.40;;;23.50;42.03;99568.16;5008145;28;117891;-81
2023/06/24 06:47:54;;;;;;;;;;;22.90;70.10;;;23.59;42.00;99561.06;5011484;27;124807;-81
2023/06/24 06:50:20;;;;;;;;;;;23.00;70.00;;;23.72;41.82;99560.81;5026189;28;124053;-79
2023/06/24 06:52:46;;;;;;;;;;;23.10;69.70;;;23.83;41.33;99560.97;5023202;28;121849;-78
2023/06/24 06:55:12;;;;;;;;;;;23.20;69.50;;;23.92;41.38;99562.31;5025429;28;119755;-78
2023/06/24 06:57:41;;;;;;;;;;;23.30;69.10;;;23.98;40.98;99559.97;5027673;28;123671;-77
2023/06/24 07:00:08;;;;;;;;;;;23.40;68.60;;;24.05;40.55;99564.91;5026369;27;122963;-74
2023/06/24 07:02:34;;;;;;;;;;;23.40;67.90;;;24.07;40.24;99560.47;5023150;27;118590;-74
2023/06/24 07:05:01;;;;;;;;;;;23.50;67.10;;;24.12;39.76;99551.66;5017913;28;119621;-75
2023/06/24 07:07:27;;;;;;;;;;;23.60;66.60;;;24.18;39.52;99554.94;5020096;27;124150;-74
2023/06/24 07:09:54;;;;;;;;;;;23.60;65.90;;;24.22;39.10;99556.63;5023300;27;125735;-74
2023/06/24 07:12:23;;;;;;;;;;;23.70;65.80;;;24.26;39.26;99562.31;5023213;28;119428;-74
2023/06/24 07:14:52;;;;;;;;;;;23.70;65.40;;;24.32;39.01;99551.50;5026964;27;117663;-74
2023/06/24 07:17:23;;;;;;;;;;;23.80;65.20;;;24.40;38.72;99559.66;5024514;28;124348;-74
2023/06/24 07:19:49;;;;;;;;;;;23.90;65.10;;;24.48;38.51;99560.56;5014875;27;123435;-76
2023/06/24 07:22:15;;;;;;;;;;;23.90;64.70;;;24.58;38.55;99554.22;5027462;27;118941;-79
2023/06/24 07:24:42;;;;;;;;;;;24.00;64.60;;;24.67;38.31;99557.53;5006584;28;117622;-78
2023/06/24 07:27:10;;;;;;;;;;;24.10;64.40;;;24.74;37.49;99561.63;5021423;28;123634;-75
2023/06/24 07:29:37;;;;;;;;;;;24.20;63.30;;;24.78;37.69;99554.00;5011697;28;123670;-74
2023/06/24 07:32:03;;;;;;;;;;;24.20;63.00;;;24.83;37.45;99556.47;5024970;28;119578;-74
2023/06/24 07:34:30;;;;;;;;;;;24.20;63.00;;;24.90;37.29;99559.34;5027673;27;118487;-74
2023/06/24 07:36:57;;;;;;;;;;;24.30;62.80;;;24.97;37.50;99553.75;5008668;27;124108;-74
2023/06/24 07:39:23;;;;;;;;;;;24.40;62.50;;;25.06;37.22;99557.03;5024036;28;123911;-74
2023/06/24 07:41:51;;;;;;;;;;;24.50;62.40;;;25.14;36.85;99557.91;5026056;27;120019;-74
2023/06/24 07:44:19;;;;;;;;;;;24.60;62.10;;;25.21;37.03;99551.53;5033226;27;119312;-74
2023/06/24 07:46:45;;;;;;;;;;;24.60;62.10;;;25.28;36.36;99557.22;5037250;27;124382;-74
2023/06/24 07:49:12;;;;;;;;;;;24.70;61.50;;;25.33;36.20;99554.03;5037832;27;123688;-74
2023/06/24 07:51:38;;;;;;;;;;;24.80;61.20;;;25.40;36.27;99547.63;5032359;27;119265;-74
2023/06/24 07:54:09;;;;;;;;;;;24.80;61.50;;;25.47;36.09;99554.16;5036328;27;117991;-74
2023/06/24 07:56:35;;;;;;;;;;;24.90;60.70;;;25.54;36.27;99547.69;5043005;27;125006;-74
2023/06/24 07:59:02;;;;;;;;;;;24.90;60.90;;;25.59;35.80;99546.53;5039664;27;125305;-74
2023/06/24 08:01:31;;;;;;;;;;;25.00;60.60;;;25.60;35.85;99548.94;5025475;27;119412;-76
2023/06/24 08:03:57;;;;;;;;;;;25.10;60.50;;;25.67;36.42;99542.53;5022194;27;118878;-80
2023/06/24 08:06:24;;;;;;;;;;;25.10;60.70;;;25.75;36.11;99552.66;5031528;27;124137;-76
2023/06/24 08:08:50;;;;;;;;;;;25.20;60.50;;;25.80;36.04;99543.81;5028838;27;124266;-77
2023/06/24 08:11:16;;;;;;;;;;;25.30;60.40;;;25.82;35.49;99538.56;5033642;27;119507;-76
2023/06/24 08:13:42;;;;;;;;;;;25.30;60.10;;;25.87;35.92;99538.22;5046522;27;118572;-73
2023/06/24 08:16:09;;;;;;;;;;;25.30;60.40;;;25.95;35.80;99539.03;5044957;27;124135;-73
2023/06/24 08:18:35;;;;;;;;;;;25.40;60.40;;;25.98;35.96;99541.91;5046447;27;123980;-74
2023/06/24 08:21:01;;;;;;;;;;;25.40;60.00;;;26.04;36.05;99544.34;5045172;27;119708;-73
2023/06/24 08:23:28;;;;;;;;;;;25.50;60.00;;;26.09;35.59;99539.09;5019137;27;118751;-75
2023/06/24 08:25:54;;;;;;;;;;;25.50;59.60;;;26.12;35.29;99532.63;5032248;27;124868;-76
2023/06/24 08:28:20;;;;;;;;;;;25.60;59.30;;;26.16;35.06;99526.97;5031066;27;123759;-77
2023/06/24 08:30:46;;;;;;;;;;;25.60;58.60;;;26.19;35.42;99532.66;5027004;27;121225;-78
2023/06/24 08:33:13;;;;;;;;;;;25.60;59.10;;;26.24;34.63;99517.28;5028253;27;119413;-78
2023/06/24 08:35:39;;;;;;;;;;;25.70;58.50;;;26.28;34.35;99525.81;5010138;27;124455;-76
2023/06/24 08:38:05;;;;;;;;;;;25.70;58.40;;;26.30;34.84;99529.81;5033345;27;122872;-77
2023/06/24 08:40:34;;;;;;;;;;;25.70;58.60;;;26.34;34.75;99515.69;5028910;27;118351;-77
2023/06/24 08:43:00;;;;;;;;;;;25.80;58.10;;;26.37;34.72;99520.53;5026577;27;118860;-78
2023/06/24 08:45:26;;;;;;;;;;;25.80;58.40;;;26.39;35.11;99516.09;5011013;28;123195;-74
2023/06/24 08:47:54;;;;;;;;;;;25.90;58.20;;;26.41;34.24;99515.69;5025773;28;124044;-77
2023/06/24 08:50:22;;;;;;;;;;;25.90;57.90;;;26.41;33.83;99521.34;5012065;28;118548;-77
2023/06/24 08:52:51;;;;;;;;;;;26.00;57.00;;;26.41;33.56;99525.00;5000215;28;118157;-76
2023/06/24 08:55:22;;;;;;;;;;;26.00;56.60;;;26.41;33.57;99527.84;5014952;28;124822;-76
2023/06/24 08:57:49;;;;;;;;;;;26.00;56.20;;;26.38;33.53;99514.50;5019190;28;124444;-77
2023/06/24 09:00:19;;;;;;;;;;;26.00;55.90;;;26.36;33.36;99518.94;5021147;28;118810;-77
2023/06/24 09:02:45;;;;;;;;;;;26.00;55.50;;;26.34;33.44;99516.50;5023981;28;118832;-77
2023/06/24 09:05:11;;;;;;;;;;;26.00;55.80;;;26.35;33.66;99512.44;5021760;27;124108;-78
2023/06/24 09:07:38;;;;;;;;;;;26.00;56.00;;;26.36;33.73;99513.28;5018557;27;123249;-78
2023/06/24 09:10:04;;;;;;;;;;;26.00;55.60;;;26.35;33.58;99523.78;5016609;28;120492;-76
2023/06/24 09:12:32;;;;;;;;;;;26.00;55.50;;;26.38;33.53;99522.16;5024110;28;118641;-75
2023/06/24 09:14:58;;;;;;;;;;;26.00;56.50;;;26.42;33.16;99512.47;5025040;28;124562;-76
2023/06/24 09:17:25;;;;;;;;;;;26.00;55.60;;;26.45;32.26;99508.81;5024412;28;124284;-76
2023/06/24 09:19:51;;;;;;;;;;;26.00;54.20;;;26.44;31.91;99504.38;5013652;28;120881;-76
2023/06/24 09:22:18;;;;;;;;;;;26.00;53.40;;;26.42;32.17;99501.13;5025655;27;119760;-76
2023/06/24 09:24:46;;;;;;;;;;;26.00;53.40;;;26.42;31.92;99503.97;5025249;28;124555;-76
2023/06/24 09:27:14;;;;;;;;;;;25.90;53.10;;;26.41;31.74;99505.19;5024612;28;124106;-76
2023/06/24 09:29:41;;;;;;;;;;;25.90;52.60;;;26.42;32.31;99497.47;5025552;28;120095;-76
2023/06/24 09:32:08;;;;;;;;;;;25.90;53.00;;;26.45;31.49;99494.66;5011276;28;118169;-76
2023/06/24 09:34:35;;;;;;;;;;;26.00;52.00;;;26.49;31.51;99483.34;5026943;28;124034;-77
2023/06/24 09:37:01;;;;;;;;;;;26.00;52.60;;;26.56;31.68;99493.88;5020648;27;123995;-76
2023/06/24 09:39:31;;;;;;;;;;;26.00;52.70;;;26.60;32.11;99489.84;5024289;27;119088;-77
2023/06/24 09:41:58;;;;;;;;;;;26.10;52.90;;;26.66;31.63;99487.41;5022753;27;118551;-76
2023/06/24 09:44:25;;;;;;;;;;;26.20;52.60;;;26.66;30.83;99476.88;5024669;27;123337;-76
2023/06/24 09:46:52;;;;;;;;;;;26.20;51.60;;;26.69;31.09;99480.94;5021143;28;123890;-76
2023/06/24 09:49:21;;;;;;;;;;;26.20;51.80;;;26.72;30.86;99471.59;5019543;28;119578;-76
2023/06/24 09:51:49;;;;;;;;;;;26.20;51.50;;;26.77;31.23;99470.41;5022973;28;118767;-77
2023/06/24 09:54:16;;;;;;;;;;;26.30;51.90;;;26.81;31.45;99480.53;5023661;28;124332;-76
2023/06/24 09:56:48;;;;;;;;;;;26.30;52.00;;;26.87;31.38;99478.91;5021564;28;124277;-76
2023/06/24 09:59:19;;;;;;;;;;;26.40;52.00;;;26.91;31.14;99463.91;5021269;27;119671;-76
2023/06/24 10:01:46;;;;;;;;;;;26.40;51.90;;;26.95;31.05;99476.03;5004743;28;117646;-76
2023/06/24 10:04:20;;;;;;;;;;;26.50;51.50;;;26.99;30.95;99465.50;5007321;28;123561;-76
2023/06/24 10:06:48;;;;;;;;;;;26.50;51.60;;;27.03;31.16;99460.66;5007951;28;122948;-76
2023/06/24 10:09:16;;;;;;;;;;;26.60;51.50;;;27.08;30.91;99463.88;5026392;28;120083;-76
2023/06/24 10:11:46;;;;;;;;;;;26.60;51.60;;;27.05;29.85;99463.88;5026421;27;118715;-76
2023/06/24 10:14:14;;;;;;;;;;;26.60;49.10;;;27.07;29.11;99455.78;5020374;28;124481;-76
2023/06/24 10:16:42;;;;;;;;;;;26.60;48.70;;;27.10;29.90;99452.09;5005639;28;123838;-76
2023/06/24 10:19:08;;;;;;;;;;;26.70;49.40;;;27.14;29.75;99454.97;5013086;27;120084;-76
2023/06/24 10:21:51;;;;;;;;;;;26.70;49.40;;;27.15;30.05;99450.91;5010051;27;119328;-76
2023/06/24 10:24:34;;;;;;;;;;;26.70;49.30;;;27.14;29.70;99437.94;5020972;28;123591;-76
2023/06/24 10:27:23;;;;;;;;;;;26.60;49.60;;;27.15;29.94;99439.53;5012957;28;123907;-76
2023/06/24 10:29:53;;;;;;;;;;;26.60;49.60;;;27.14;30.03;99433.06;5007224;28;119739;-76
2023/06/24 10:32:22;;;;;;;;;;;26.70;49.80;;;27.14;29.84;99433.06;5019143;28;120565;-76
2023/06/24 10:34:57;;;;;;;;;;;26.70;49.50;;;27.13;30.15;99439.94;5025143;28;124853;-75
2023/06/24 10:37:26;;;;;;;;;;;26.70;49.40;;;27.14;29.86;99427.41;5023621;28;123867;-76
2023/06/24 10:39:56;;;;;;;;;;;26.70;49.00;;;27.16;29.69;99430.59;5009347;27;118491;-76
2023/06/24 10:42:25;;;;;;;;;;;26.80;49.20;;;27.17;30.06;99420.94;5022921;27;118576;-77
2023/06/24 10:44:55;;;;;;;;;;;26.80;49.80;;;27.21;30.57;99420.91;5022371;27;124682;-76
2023/06/24 10:47:26;;;;;;;;;;;26.80;49.80;;;27.25;29.36;99414.00;5025038;28;123888;-76
2023/06/24 10:49:52;;;;;;;;;;;26.90;48.40;;;27.31;28.53;99409.53;5016083;28;118259;-76
2023/06/24 10:52:21;;;;;;;;;;;26.90;46.90;;;27.35;27.95;99409.53;5023725;28;119989;-76
2023/06/24 10:54:48;;;;;;;;;;;26.90;46.60;;;27.40;27.87;99417.59;5011329;28;124971;-77
2023/06/24 10:57:14;;;;;;;;;;;26.90;45.80;;;27.46;27.50;99413.13;5024026;28;124053;-77
2023/06/24 10:59:47;;;;;;;;;;;27.00;45.40;;;27.50;27.61;99396.06;5017136;28;119580;-77
2023/06/24 11:02:15;;;;;;;;;;;27.00;45.70;;;27.56;26.87;99407.78;5017909;27;119668;-76
2023/06/24 11:04:49;;;;;;;;;;;27.10;44.60;;;27.62;27.04;99401.28;5014879;28;124162;-79
2023/06/24 11:07:23;;;;;;;;;;;27.10;44.80;;;27.68;27.31;99396.78;5015139;28;124119;-77
2023/06/24 11:09:50;;;;;;;;;;;27.20;45.30;;;27.72;27.68;99394.72;5018015;28;119175;-77
2023/06/24 11:12:17;;;;;;;;;;;27.20;45.70;;;27.77;27.27;99391.44;5023609;28;118849;-77
2023/06/24 11:14:43;;;;;;;;;;;27.30;45.00;;;27.85;27.37;99386.56;5021338;28;124208;-77